Time;durP1;ratioP1;P1;durP2;ratioP2;P2;SDS_P1;SDS_P2;PMS_P1;PMS_P2;Temp;Humidity;BMP_temperature;BMP_pressure;BME280_temperature;BME280_humidity;BME280_pressure;Samples;Min_cycle;Max_cycle;Signal;HPM_P1;HPM_P2
2023/05/07 00:01:28;;;;;;;0.50;0.50;;;13.80;99.90;;;;;;5043370;28;20021;-79
2023/05/07 00:03:54;;;;;;;0.43;0.43;;;13.80;99.90;;;;;;5025508;28;20017;-78
2023/05/07 00:06:19;;;;;;;0.80;0.80;;;13.70;99.90;;;;;;5025180;28;20105;-79
2023/05/07 00:08:45;;;;;;;0.73;0.73;;;13.70;99.90;;;;;;5040065;28;20503;-79
2023/05/07 00:11:11;;;;;;;0.80;0.80;;;13.70;99.90;;;;;;5030049;28;20037;-77
2023/05/07 00:13:36;;;;;;;0.70;0.70;;;13.60;99.90;;;;;;5029956;28;20014;-77
2023/05/07 00:16:03;;;;;;;0.80;0.80;;;13.60;99.90;;;;;;5009860;28;20103;-77
2023/05/07 00:18:29;;;;;;;1.05;0.80;;;13.60;99.90;;;;;;5020673;28;20062;-79
2023/05/07 00:20:54;;;;;;;1.13;1.00;;;13.60;99.90;;;;;;5018564;28;20049;-78
2023/05/07 00:23:20;;;;;;;1.27;1.17;;;13.50;99.90;;;;;;5019797;28;20176;-79
2023/05/07 00:25:45;;;;;;;1.55;1.25;;;13.50;99.90;;;;;;5021157;28;20332;-79
2023/05/07 00:28:11;;;;;;;1.00;1.00;;;13.50;99.90;;;;;;5028875;28;20026;-77
2023/05/07 00:30:37;;;;;;;1.17;1.08;;;13.50;99.90;;;;;;5011145;28;20085;-80
2023/05/07 00:33:03;;;;;;;0.80;0.80;;;13.50;99.90;;;;;;5006999;28;20062;-78
2023/05/07 00:35:29;;;;;;;0.70;0.70;;;13.50;99.90;;;;;;5021818;28;20092;-78
2023/05/07 00:37:55;;;;;;;0.93;0.90;;;13.50;99.90;;;;;;5026452;28;20025;-79
2023/05/07 00:40:21;;;;;;;0.70;0.70;;;13.40;99.90;;;;;;5020620;28;20482;-79
2023/05/07 00:42:48;;;;;;;1.10;0.93;;;13.40;99.90;;;;;;5022983;28;20136;-78
2023/05/07 00:45:15;;;;;;;0.93;0.93;;;13.40;99.90;;;;;;5011828;28;20026;-77
2023/05/07 00:47:41;;;;;;;0.93;0.75;;;13.40;99.90;;;;;;5034415;28;20022;-78
2023/05/07 00:50:09;;;;;;;0.90;0.90;;;13.40;99.90;;;;;;5033434;28;20018;-77
2023/05/07 00:52:37;;;;;;;0.70;0.70;;;13.40;99.90;;;;;;5033347;28;20029;-77
2023/05/07 00:55:06;;;;;;;1.00;1.00;;;13.40;99.90;;;;;;5005932;28;20125;-77
2023/05/07 00:57:40;;;;;;;0.73;0.73;;;13.40;99.90;;;;;;5011638;28;20048;-79
2023/05/07 01:00:08;;;;;;;0.80;0.80;;;13.40;99.90;;;;;;5026037;28;20022;-79
2023/05/07 01:02:38;;;;;;;0.75;0.75;;;13.40;99.90;;;;;;4997561;28;20034;-79
2023/05/07 01:05:07;;;;;;;0.80;0.80;;;13.40;99.90;;;;;;4983792;28;20090;-78
2023/05/07 01:07:34;;;;;;;0.70;0.70;;;13.40;99.90;;;;;;4999248;28;20033;-80
2023/05/07 01:10:00;;;;;;;0.70;0.70;;;13.40;99.90;;;;;;5000092;28;20034;-78
2023/05/07 01:12:27;;;;;;;0.57;0.57;;;13.40;99.90;;;;;;5014429;28;20061;-79
2023/05/07 01:14:53;;;;;;;0.57;0.57;;;13.40;99.90;;;;;;5019112;28;20018;-80
2023/05/07 01:17:19;;;;;;;0.75;0.75;;;13.40;99.90;;;;;;5019795;28;20044;-78
2023/05/07 01:19:45;;;;;;;0.63;0.63;;;13.40;99.90;;;;;;5001626;28;20034;-78
2023/05/07 01:22:11;;;;;;;0.55;0.55;;;13.40;99.90;;;;;;4992552;28;20113;-78
2023/05/07 01:24:38;;;;;;;0.60;0.60;;;13.40;99.90;;;;;;5019335;28;20026;-79
2023/05/07 01:27:04;;;;;;;0.70;0.70;;;13.40;99.90;;;;;;5022324;28;20032;-79
2023/05/07 01:29:30;;;;;;;0.50;0.50;;;13.30;99.90;;;;;;5032730;28;20029;-79
2023/05/07 01:32:00;;;;;;;0.88;0.88;;;13.30;99.90;;;;;;5029861;28;20031;-78
2023/05/07 01:34:29;;;;;;;0.70;0.70;;;13.30;99.90;;;;;;4981272;28;20317;-78
2023/05/07 01:36:57;;;;;;;0.80;0.80;;;13.30;99.90;;;;;;5002055;28;20153;-79
2023/05/07 01:39:25;;;;;;;0.93;0.93;;;13.30;99.90;;;;;;4998933;28;20061;-77
2023/05/07 01:41:51;;;;;;;1.05;1.02;;;13.30;99.90;;;;;;5001429;28;20093;-79
2023/05/07 01:44:18;;;;;;;0.82;0.82;;;13.20;99.90;;;;;;4984038;28;20073;-79
2023/05/07 01:46:44;;;;;;;0.75;0.75;;;13.20;99.90;;;;;;4997866;28;20538;-79
2023/05/07 01:49:10;;;;;;;0.47;0.47;;;13.20;99.90;;;;;;4983274;28;20037;-78
2023/05/07 01:51:36;;;;;;;0.68;0.68;;;13.20;99.90;;;;;;5007278;28;20026;-78
2023/05/07 01:54:02;;;;;;;0.70;0.70;;;13.20;99.90;;;;;;5008123;28;20073;-77
2023/05/07 01:56:27;;;;;;;0.70;0.70;;;13.20;99.90;;;;;;4997617;28;20526;-77
2023/05/07 01:58:53;;;;;;;0.55;0.55;;;13.20;99.90;;;;;;5040010;28;20033;-77
2023/05/07 02:01:19;;;;;;;0.70;0.70;;;13.20;99.90;;;;;;5035400;28;20054;-78
2023/05/07 02:03:44;;;;;;;0.70;0.70;;;13.10;99.90;;;;;;5006690;28;20073;-78
2023/05/07 02:06:10;;;;;;;0.63;0.60;;;13.10;99.90;;;;;;4988837;28;20099;-78
2023/05/07 02:08:36;;;;;;;0.40;0.40;;;13.10;99.90;;;;;;5015392;28;20027;-77
2023/05/07 02:11:02;;;;;;;0.60;0.60;;;13.10;99.90;;;;;;5018254;28;20013;-77
2023/05/07 02:13:33;;;;;;;0.60;0.60;;;13.00;99.90;;;;;;5015491;28;20026;-78
2023/05/07 02:15:59;;;;;;;0.90;0.60;;;13.00;99.90;;;;;;5034070;28;20014;-78
2023/05/07 02:18:25;;;;;;;0.80;0.80;;;13.00;99.90;;;;;;5023059;28;20025;-77
2023/05/07 02:20:50;;;;;;;0.77;0.77;;;13.00;99.90;;;;;;5005618;28;20401;-78
2023/05/07 02:23:16;;;;;;;0.95;0.88;;;13.00;99.90;;;;;;5007958;28;20060;-78
2023/05/07 02:25:41;;;;;;;0.77;0.77;;;13.00;99.90;;;;;;5024598;28;20036;-79
2023/05/07 02:28:07;;;;;;;0.80;0.80;;;12.90;99.90;;;;;;5033673;28;20104;-78
2023/05/07 02:30:33;;;;;;;1.02;0.95;;;12.90;99.90;;;;;;5024989;28;20100;-78
2023/05/07 02:32:58;;;;;;;0.80;0.80;;;12.90;99.90;;;;;;5002416;28;20128;-79
2023/05/07 02:35:27;;;;;;;1.15;1.10;;;12.90;99.90;;;;;;5005858;28;20073;-79
2023/05/07 02:37:52;;;;;;;0.80;0.80;;;12.90;99.90;;;;;;4987062;28;20124;-78
2023/05/07 02:40:18;;;;;;;0.98;0.98;;;12.90;99.90;;;;;;5004776;28;20026;-78
2023/05/07 02:42:44;;;;;;;1.15;1.05;;;12.80;99.90;;;;;;4995292;28;20402;-79
2023/05/07 02:45:10;;;;;;;1.10;1.10;;;12.90;99.90;;;;;;5023518;28;20077;-79
2023/05/07 02:47:36;;;;;;;1.00;1.00;;;12.90;99.90;;;;;;5023196;28;20503;-78
2023/05/07 02:50:02;;;;;;;1.13;1.13;;;12.80;99.90;;;;;;5019188;28;20042;-79
2023/05/07 02:52:28;;;;;;;1.13;1.02;;;12.80;99.90;;;;;;5001477;28;20024;-78
2023/05/07 02:54:54;;;;;;;1.13;1.10;;;12.80;99.90;;;;;;4982295;28;20482;-79
2023/05/07 02:57:19;;;;;;;0.90;0.90;;;12.80;99.90;;;;;;5020487;28;20026;-78
2023/05/07 02:59:45;;;;;;;1.05;0.95;;;12.80;99.90;;;;;;5032962;28;20032;-78
2023/05/07 03:02:11;;;;;;;0.93;0.93;;;12.80;99.90;;;;;;5042148;28;20030;-78
2023/05/07 03:04:36;;;;;;;1.35;1.25;;;12.70;99.90;;;;;;4988234;28;20430;-79
2023/05/07 03:07:02;;;;;;;0.90;0.90;;;12.70;99.90;;;;;;5015226;28;20029;-79
2023/05/07 03:09:28;;;;;;;1.27;1.20;;;12.70;99.90;;;;;;5019839;28;20029;-79
2023/05/07 03:11:54;;;;;;;0.90;0.90;;;12.70;99.90;;;;;;5023126;28;20093;-79
2023/05/07 03:14:20;;;;;;;0.60;0.60;;;12.60;99.90;;;;;;5019865;28;20041;-78
2023/05/07 03:16:45;;;;;;;0.80;0.80;;;12.60;99.90;;;;;;5020686;28;20030;-78
2023/05/07 03:19:11;;;;;;;0.98;0.98;;;12.60;99.90;;;;;;5009847;28;20080;-78
2023/05/07 03:21:37;;;;;;;0.90;0.90;;;12.50;99.90;;;;;;5002373;28;20101;-78
2023/05/07 03:24:03;;;;;;;0.80;0.80;;;12.50;99.90;;;;;;5010473;28;20045;-81
2023/05/07 03:26:28;;;;;;;0.80;0.80;;;12.40;99.90;;;;;;5022949;28;20072;-78
2023/05/07 03:28:55;;;;;;;1.00;1.00;;;12.40;99.90;;;;;;5029301;28;20423;-79
2023/05/07 03:31:21;;;;;;;0.60;0.60;;;12.40;99.90;;;;;;5022332;28;20033;-78
2023/05/07 03:33:55;;;;;;;0.80;0.80;;;12.40;99.90;;;;;;5002365;28;20026;-78
2023/05/07 03:36:21;;;;;;;0.70;0.70;;;12.40;99.90;;;;;;5019883;28;20408;-79
2023/05/07 03:38:48;;;;;;;0.80;0.80;;;12.40;99.90;;;;;;4999517;28;20029;-76
2023/05/07 03:41:14;;;;;;;0.60;0.60;;;12.40;99.90;;;;;;5010106;28;20108;-77
2023/05/07 03:43:43;;;;;;;0.55;0.55;;;12.40;99.90;;;;;;5013893;28;20046;-77
2023/05/07 03:46:09;;;;;;;0.60;0.60;;;12.40;99.90;;;;;;5014054;28;20060;-77
2023/05/07 03:48:34;;;;;;;1.00;1.00;;;12.40;99.90;;;;;;5019613;28;20026;-76
2023/05/07 03:51:00;;;;;;;0.88;0.88;;;12.40;99.90;;;;;;5026665;28;20022;-76
2023/05/07 03:53:26;;;;;;;0.77;0.77;;;12.40;99.90;;;;;;5024311;28;20030;-77
2023/05/07 03:55:52;;;;;;;0.50;0.50;;;12.40;99.90;;;;;;5019553;28;20048;-76
2023/05/07 03:58:20;;;;;;;0.65;0.65;;;12.40;99.90;;;;;;5022628;28;20017;-75
2023/05/07 04:00:46;;;;;;;0.63;0.63;;;12.40;99.90;;;;;;5034878;28;20136;-77
2023/05/07 04:03:11;;;;;;;0.60;0.60;;;12.30;99.90;;;;;;5015497;28;20129;-76
2023/05/07 04:05:40;;;;;;;0.80;0.73;;;12.30;99.90;;;;;;5014361;28;20073;-75
2023/05/07 04:08:07;;;;;;;0.47;0.47;;;12.30;99.90;;;;;;5013094;28;20108;-77
2023/05/07 04:10:35;;;;;;;0.80;0.80;;;12.40;99.90;;;;;;5013048;28;20127;-77
2023/05/07 04:13:04;;;;;;;0.70;0.70;;;12.40;99.90;;;;;;5012443;28;20147;-75
2023/05/07 04:15:30;;;;;;;0.90;0.90;;;12.40;99.90;;;;;;5012215;28;20036;-77
2023/05/07 04:17:55;;;;;;;0.80;0.80;;;12.40;99.90;;;;;;5010245;28;20026;-76
2023/05/07 04:20:21;;;;;;;0.98;0.98;;;12.50;99.90;;;;;;4994592;28;20061;-76
2023/05/07 04:22:47;;;;;;;1.13;1.10;;;12.50;99.90;;;;;;4993515;28;20048;-76
2023/05/07 04:25:12;;;;;;;0.88;0.82;;;12.50;99.90;;;;;;4995558;28;20032;-77
2023/05/07 04:27:38;;;;;;;0.80;0.80;;;12.50;99.90;;;;;;5007055;28;20027;-76
2023/05/07 04:30:04;;;;;;;0.77;0.77;;;12.60;99.90;;;;;;5050189;28;20076;-76
2023/05/07 04:32:30;;;;;;;0.52;0.52;;;12.60;99.90;;;;;;5046564;28;20092;-77
2023/05/07 04:34:56;;;;;;;0.73;0.73;;;12.70;99.90;;;;;;5024414;28;20029;-77
2023/05/07 04:37:22;;;;;;;0.80;0.80;;;12.70;99.90;;;;;;5026712;28;20052;-76
2023/05/07 04:39:48;;;;;;;0.73;0.73;;;12.80;99.90;;;;;;5023738;28;20069;-76
2023/05/07 04:42:17;;;;;;;0.90;0.90;;;12.80;99.90;;;;;;5017324;28;20093;-76
2023/05/07 04:44:46;;;;;;;0.70;0.70;;;12.90;99.90;;;;;;5002679;28;20048;-76
2023/05/07 04:47:12;;;;;;;0.60;0.60;;;13.00;99.90;;;;;;5020100;28;20045;-77
2023/05/07 04:49:40;;;;;;;0.80;0.80;;;13.10;99.90;;;;;;5025710;28;20052;-76
2023/05/07 04:52:06;;;;;;;1.00;1.00;;;13.10;99.90;;;;;;5025575;28;20030;-77
2023/05/07 04:54:32;;;;;;;0.60;0.60;;;13.20;99.90;;;;;;5007832;28;20037;-77
2023/05/07 04:56:57;;;;;;;0.68;0.68;;;13.30;99.90;;;;;;5024398;28;20428;-77
2023/05/07 04:59:23;;;;;;;0.70;0.70;;;13.40;99.90;;;;;;5036375;28;20018;-75
2023/05/07 05:01:49;;;;;;;0.70;0.70;;;13.50;99.90;;;;;;5034914;28;20021;-76
2023/05/07 05:04:14;;;;;;;0.40;0.40;;;13.60;99.90;;;;;;5053648;28;20029;-75
2023/05/07 05:06:40;;;;;;;0.80;0.80;;;13.70;99.90;;;;;;5053001;28;20026;-76
2023/05/07 05:09:06;;;;;;;0.85;0.85;;;13.70;99.90;;;;;;5048812;28;20033;-75
2023/05/07 05:11:32;;;;;;;0.57;0.57;;;13.80;99.90;;;;;;5042392;28;20025;-77
2023/05/07 05:14:00;;;;;;;0.80;0.80;;;14.00;99.90;;;;;;5033813;28;20032;-76
2023/05/07 05:16:26;;;;;;;0.80;0.80;;;14.00;99.90;;;;;;5025226;28;20580;-77
2023/05/07 05:18:52;;;;;;;0.70;0.70;;;14.00;99.90;;;;;;5012936;28;20034;-76
2023/05/07 05:21:17;;;;;;;0.73;0.73;;;14.00;99.90;;;;;;5011185;28;20022;-77
2023/05/07 05:23:43;;;;;;;0.60;0.60;;;14.00;99.90;;;;;;5012266;28;20025;-76
2023/05/07 05:26:09;;;;;;;0.57;0.57;;;14.00;99.90;;;;;;5009835;28;20079;-76
2023/05/07 05:28:34;;;;;;;0.57;0.57;;;14.10;99.90;;;;;;5018900;28;20340;-73
2023/05/07 05:31:00;;;;;;;0.70;0.70;;;14.20;99.90;;;;;;4993964;28;20026;-73
2023/05/07 05:33:26;;;;;;;0.80;0.80;;;14.30;99.90;;;;;;5011461;28;20014;-74
2023/05/07 05:35:53;;;;;;;0.40;0.40;;;14.40;99.90;;;;;;5007861;28;20022;-74
2023/05/07 05:38:20;;;;;;;0.55;0.55;;;14.50;99.90;;;;;;4990059;28;20073;-78
2023/05/07 05:40:46;;;;;;;0.40;0.40;;;14.60;99.90;;;;;;5011632;28;20029;-78
2023/05/07 05:43:12;;;;;;;0.70;0.70;;;14.70;99.90;;;;;;4998029;28;20018;-77
2023/05/07 05:45:37;;;;;;;0.50;0.50;;;14.70;99.90;;;;;;5015593;28;20022;-78
2023/05/07 05:48:03;;;;;;;0.50;0.50;;;14.70;99.90;;;;;;5014975;28;20030;-77
2023/05/07 05:50:29;;;;;;;0.80;0.80;;;14.80;99.90;;;;;;5018245;28;20044;-77
2023/05/07 05:52:55;;;;;;;0.50;0.50;;;14.90;99.90;;;;;;5024471;28;20022;-76
2023/05/07 05:55:21;;;;;;;0.77;0.70;;;15.00;99.90;;;;;;4999717;28;20037;-76
2023/05/07 05:57:47;;;;;;;1.20;1.10;;;15.10;99.90;;;;;;5014075;28;20030;-75
2023/05/07 06:00:13;;;;;;;2.30;1.45;;;15.70;99.90;;;;;;5030383;28;20488;-72
2023/05/07 06:02:39;;;;;;;1.10;1.00;;;;;;;;;;5019890;28;20030;-74
2023/05/07 06:05:05;;;;;;;1.20;1.20;;;20.80;92.90;;;;;;5016601;28;20462;-76
2023/05/07 06:07:31;;;;;;;0.88;0.88;;;;;;;;;;4996467;28;20066;-76
2023/05/07 06:09:57;;;;;;;0.68;0.60;;;23.90;79.90;;;;;;5016671;28;20061;-77
2023/05/07 06:12:22;;;;;;;0.77;0.77;;;25.30;73.20;;;;;;5013999;28;20131;-75
2023/05/07 06:14:48;;;;;;;0.43;0.43;;;26.20;67.90;;;;;;4994276;28;20040;-76
2023/05/07 06:17:14;;;;;;;0.30;0.30;;;26.90;63.10;;;;;;4995076;28;20034;-76
2023/05/07 06:19:39;;;;;;;0.63;0.63;;;27.40;60.50;;;;;;5014453;28;20081;-76
2023/05/07 06:22:05;;;;;;;0.50;0.50;;;27.90;58.60;;;;;;5015024;28;20022;-76
2023/05/07 06:24:36;;;;;;;0.50;0.50;;;28.50;57.00;;;;;;5000527;28;20033;-76
2023/05/07 06:27:02;;;;;;;0.77;0.77;;;28.60;55.00;;;;;;5015085;28;20072;-76
2023/05/07 06:29:32;;;;;;;0.75;0.75;;;28.30;53.60;;;;;;5023486;28;20026;-75
2023/05/07 06:32:07;;;;;;;0.68;0.68;;;28.10;53.70;;;;;;5017283;28;20030;-77
2023/05/07 06:34:39;;;;;;;0.70;0.70;;;28.20;54.10;;;;;;5014631;28;20040;-75
2023/05/07 06:37:06;;;;;;;0.60;0.60;;;28.70;53.00;;;;;;5012638;28;20036;-76
2023/05/07 06:39:32;;;;;;;0.50;0.50;;;28.60;52.50;;;;;;5004876;28;20040;-77
2023/05/07 06:41:58;;;;;;;0.60;0.60;;;28.80;52.20;;;;;;4996814;28;20030;-76
2023/05/07 06:44:24;;;;;;;0.70;0.70;;;29.10;51.50;;;;;;4995065;28;20026;-77
2023/05/07 06:46:49;;;;;;;0.52;0.52;;;29.40;51.50;;;;;;5005615;28;20108;-75
2023/05/07 06:49:15;;;;;;;0.60;0.60;;;29.70;50.90;;;;;;5001389;28;20030;-75
2023/05/07 06:51:44;;;;;;;0.40;0.40;;;30.20;50.30;;;;;;5013726;28;20061;-76
2023/05/07 06:54:10;;;;;;;0.80;0.80;;;30.30;49.40;;;;;;4981073;28;20669;-76
2023/05/07 06:56:35;;;;;;;0.70;0.70;;;29.90;48.90;;;;;;5002590;28;20105;-75
2023/05/07 06:59:02;;;;;;;0.55;0.55;;;29.60;49.10;;;;;;5022583;28;20076;-77
2023/05/07 07:01:28;;;;;;;0.80;0.80;;;28.40;49.60;;;;;;5013592;28;20026;-77
2023/05/07 07:03:54;;;;;;;0.98;0.98;;;26.50;51.60;;;;;;4997896;28;20102;-75
2023/05/07 07:06:20;;;;;;;0.93;0.93;;;24.30;55.60;;;;;;5014680;28;20022;-75
2023/05/07 07:08:45;;;;;;;0.85;0.85;;;22.50;59.90;;;;;;5015386;28;20473;-76
2023/05/07 07:11:15;;;;;;;0.77;0.77;;;21.20;63.90;;;;;;4997888;28;20037;-75
2023/05/07 07:13:42;;;;;;;1.13;1.10;;;20.40;67.20;;;;;;5016358;28;20064;-76
2023/05/07 07:16:08;;;;;;;0.98;0.90;;;19.80;69.60;;;;;;5020383;28;20022;-75
2023/05/07 07:18:34;;;;;;;1.13;1.00;;;19.30;71.90;;;;;;5040130;28;20038;-74
2023/05/07 07:21:00;;;;;;;1.13;1.10;;;18.90;73.80;;;;;;5021197;28;20023;-77
2023/05/07 07:23:25;;;;;;;1.88;1.45;;;18.70;75.40;;;;;;5020001;28;20495;-76
2023/05/07 07:25:51;;;;;;;1.58;1.48;;;18.50;76.60;;;;;;5014102;28;20135;-76
2023/05/07 07:28:17;;;;;;;1.83;1.30;;;18.40;77.50;;;;;;5024051;28;20025;-75
2023/05/07 07:30:44;;;;;;;1.50;1.20;;;18.40;78.30;;;;;;5024257;28;20057;-75
2023/05/07 07:33:09;;;;;;;1.13;1.02;;;18.50;78.80;;;;;;5014265;28;20029;-76
2023/05/07 07:35:35;;;;;;;2.03;1.50;;;18.60;78.90;;;;;;5011311;28;20058;-74
2023/05/07 07:38:03;;;;;;;1.30;1.20;;;18.70;79.20;;;;;;5028133;28;20033;-76
2023/05/07 07:40:29;;;;;;;1.20;1.10;;;18.70;80.10;;;;;;5033466;28;20462;-76
2023/05/07 07:42:57;;;;;;;2.42;1.45;;;18.70;80.40;;;;;;5010145;28;20034;-76
2023/05/07 07:45:23;;;;;;;2.95;1.60;;;18.70;80.30;;;;;;4997560;28;20029;-76
2023/05/07 07:47:51;;;;;;;1.13;1.13;;;18.70;80.30;;;;;;5028918;28;20457;-77
2023/05/07 07:50:16;;;;;;;1.58;1.38;;;18.70;80.90;;;;;;5034870;28;20113;-77
2023/05/07 07:52:42;;;;;;;2.15;1.27;;;18.70;81.40;;;;;;5018051;28;20429;-76
2023/05/07 07:55:11;;;;;;;1.55;1.45;;;18.80;82.00;;;;;;5013198;28;20038;-75
2023/05/07 07:57:40;;;;;;;1.83;1.50;;;18.90;82.30;;;;;;5021965;28;20402;-76
2023/05/07 08:00:11;;;;;;;3.53;2.47;;;19.10;82.30;;;;;;5008309;28;20042;-76
2023/05/07 08:02:37;;;;;;;1.77;1.42;;;19.20;81.50;;;;;;5020382;28;20530;-75
2023/05/07 08:05:02;;;;;;;3.25;1.75;;;19.30;81.30;;;;;;5012095;28;20034;-75
2023/05/07 08:07:31;;;;;;;1.63;1.52;;;19.50;81.00;;;;;;5011597;28;20468;-75
2023/05/07 08:09:56;;;;;;;2.13;1.98;;;19.60;80.70;;;;;;5015067;28;20021;-77
2023/05/07 08:12:22;;;;;;;2.13;1.90;;;19.70;80.20;;;;;;5006392;28;20482;-76
2023/05/07 08:14:48;;;;;;;1.77;1.58;;;19.70;80.10;;;;;;4993285;28;20038;-76
2023/05/07 08:17:15;;;;;;;2.58;1.83;;;19.80;80.50;;;;;;4983561;28;20049;-75
2023/05/07 08:19:41;;;;;;;2.55;2.00;;;19.90;79.50;;;;;;4995907;28;20026;-76
2023/05/07 08:23:03;;;;;;;2.38;2.08;;;19.90;78.10;;;;;;5020412;23;20347;-76
2023/05/07 08:29:47;;;;;;;;;;;;;;;;;;;;;
2023/05/07 08:32:39;;;;;;;1.20;1.10;;;20.10;75.70;;;;;;4920712;29;20036;-77
2023/05/07 08:36:19;;;;;;;1.95;1.48;;;20.30;74.80;;;;;;4914378;29;20051;-75
2023/05/07 08:39:00;;;;;;;2.50;1.30;;;20.40;74.40;;;;;;4878171;29;20155;-76
2023/05/07 08:42:05;;;;;;;2.80;1.45;;;20.70;75.10;;;;;;4880838;29;20048;-75
2023/05/07 08:49:06;;;;;;;2.08;1.83;;;21.30;73.50;;;;;;4956976;28;20041;-76
2023/05/07 08:51:24;;;;;;;1.40;1.30;;;21.20;73.50;;;;;;5012778;28;20045;-76
2023/05/07 08:54:00;;;;;;;2.28;1.45;;;21.50;74.40;;;;;;4997675;28;20456;-76
2023/05/07 08:56:33;;;;;;;1.30;1.20;;;21.70;73.00;;;;;;4986975;28;20058;-76
2023/05/07 08:59:04;;;;;;;1.40;1.30;;;21.70;72.20;;;;;;5005294;28;20022;-75
2023/05/07 09:01:42;;;;;;;;;;;;;;;;;;;;;
2023/05/07 09:04:14;;;;;;;1.58;1.30;;;21.70;70.60;;;;;;4989661;28;20086;-75
2023/05/07 09:07:03;;;;;;;1.50;1.40;;;21.70;69.80;;;;;;4961385;28;20023;-75
2023/05/07 09:09:29;;;;;;;3.00;1.40;;;21.90;69.10;;;;;;4994432;28;20026;-75
2023/05/07 09:12:12;;;;;;;1.42;1.33;;;21.90;69.30;;;;;;4993665;28;20452;-75
2023/05/07 09:15:21;;;;;;;1.42;1.30;;;22.10;68.50;;;;;;4992084;28;20038;-74
2023/05/07 09:18:00;;;;;;;3.47;1.50;;;22.30;67.70;;;;;;4983219;28;20034;-74
2023/05/07 09:20:36;;;;;;;1.33;1.23;;;22.20;67.70;;;;;;4980806;28;20503;-74
2023/05/07 09:26:11;;;;;;;1.17;1.08;;;22.40;68.10;;;;;;4950881;28;20078;-75
2023/05/07 09:28:41;;;;;;;1.45;1.30;;;22.70;67.20;;;;;;5018726;28;20046;-73
2023/05/07 09:34:32;;;;;;;1.38;1.20;;;23.20;64.50;;;;;;4996729;28;20122;-73
2023/05/07 09:48:51;;;;;;;3.80;1.40;;;23.20;61.80;;;;;;4967902;28;20043;-75
2023/05/07 09:51:31;;;;;;;1.70;1.60;;;23.40;60.50;;;;;;4983784;28;20078;-75
2023/05/07 09:54:06;;;;;;;3.05;1.45;;;23.30;60.50;;;;;;4983530;28;20035;-74
2023/05/07 09:56:47;;;;;;;2.60;1.27;;;23.20;60.40;;;;;;5002238;28;20253;-75
2023/05/07 09:59:37;;;;;;;1.33;1.10;;;23.40;60.80;;;;;;4984696;28;20527;-74
2023/05/07 10:06:26;;;;;;;1.90;1.60;;;23.70;59.20;;;;;;4975466;28;20019;-75
2023/05/07 10:09:52;;;;;;;1.40;1.30;;;23.80;59.60;;;;;;5011403;28;20029;-75
2023/05/07 10:12:51;;;;;;;1.38;1.27;;;23.80;60.80;;;;;;5014458;28;20105;-74
2023/05/07 10:19:11;;;;;;;1.27;1.17;;;23.60;58.20;;;;;;4936671;29;20059;-76
2023/05/07 10:22:20;;;;;;;1.88;1.50;;;23.80;58.10;;;;;;4976103;28;20026;-74
2023/05/07 10:24:59;;;;;;;4.43;1.63;;;23.90;58.40;;;;;;4934895;29;20058;-76
2023/05/07 10:27:26;;;;;;;2.10;1.20;;;23.80;58.40;;;;;;4946784;28;20180;-76
2023/05/07 10:30:10;;;;;;;1.50;1.20;;;23.60;59.30;;;;;;4954270;29;20043;-76
2023/05/07 10:32:44;;;;;;;0.98;0.98;;;23.50;59.20;;;;;;4984241;28;20080;-76
2023/05/07 10:35:24;;;;;;;2.53;1.20;;;23.40;59.40;;;;;;4983313;28;20377;-76
2023/05/07 10:37:50;;;;;;;2.50;1.50;;;23.50;59.30;;;;;;4990787;28;20096;-75
2023/05/07 10:40:17;;;;;;;1.45;1.10;;;23.30;58.10;;;;;;4989358;28;20050;-75
2023/05/07 10:43:06;;;;;;;1.95;1.20;;;23.30;58.90;;;;;;4986373;28;20050;-75
2023/05/07 10:45:32;;;;;;;1.75;1.17;;;23.20;59.10;;;;;;4991324;28;20015;-74
2023/05/07 10:48:09;;;;;;;2.20;1.92;;;23.30;59.70;;;;;;4980998;28;20410;-75
2023/05/07 10:50:39;;;;;;;1.58;1.42;;;23.20;60.20;;;;;;4994894;28;20391;-74
2023/05/07 10:53:17;;;;;;;1.98;1.40;;;23.10;60.90;;;;;;4995176;28;20097;-75
2023/05/07 10:56:18;;;;;;;2.03;1.27;;;23.10;61.30;;;;;;4967022;28;20102;-74
2023/05/07 10:58:44;;;;;;;1.85;1.48;;;23.20;61.70;;;;;;4985173;28;20125;-75
2023/05/07 11:01:12;;;;;;;2.00;1.50;;;23.40;60.30;;;;;;5013727;28;20566;-75
2023/05/07 11:04:12;;;;;;;3.35;1.67;;;23.60;60.20;;;;;;4995963;28;20038;-74
2023/05/07 11:06:38;;;;;;;1.60;1.30;;;23.70;59.60;;;;;;5013391;28;20109;-75
2023/05/07 11:09:04;;;;;;;1.17;1.15;;;23.80;59.70;;;;;;5013432;28;20113;-75
2023/05/07 11:11:55;;;;;;;1.42;1.10;;;23.80;59.60;;;;;;5013642;28;20032;-75
2023/05/07 11:14:42;;;;;;;1.97;1.33;;;24.00;59.80;;;;;;4987439;28;20029;-75
2023/05/07 11:17:09;;;;;;;3.13;1.67;;;24.10;59.30;;;;;;4984243;28;20078;-74
2023/05/07 11:19:55;;;;;;;2.60;1.67;;;24.00;59.20;;;;;;4982040;28;20023;-76
2023/05/07 11:22:32;;;;;;;2.15;1.30;;;23.80;59.80;;;;;;4993207;28;20085;-74
2023/05/07 11:25:03;;;;;;;2.55;1.63;;;23.80;60.20;;;;;;4976328;28;20361;-74
2023/05/07 11:28:12;;;;;;;2.22;1.83;;;23.90;60.10;;;;;;4988647;28;20026;-76
2023/05/07 11:30:39;;;;;;;2.22;1.58;;;23.90;58.90;;;;;;4990949;28;20088;-75
2023/05/07 11:33:05;;;;;;;1.48;1.38;;;23.90;59.10;;;;;;4982029;28;20556;-74
2023/05/07 11:35:31;;;;;;;1.80;1.60;;;23.90;59.30;;;;;;4983436;28;20064;-75
2023/05/07 11:38:00;;;;;;;2.17;1.98;;;24.10;59.40;;;;;;4980805;28;20120;-75
2023/05/07 11:40:26;;;;;;;1.90;1.60;;;24.30;58.40;;;;;;4994010;28;20038;-75
2023/05/07 11:42:51;;;;;;;2.53;1.63;;;24.30;58.90;;;;;;4978274;28;20044;-75
2023/05/07 11:45:26;;;;;;;1.45;1.35;;;24.30;58.20;;;;;;4983716;28;20027;-75
2023/05/07 11:47:52;;;;;;;1.63;1.50;;;24.40;58.40;;;;;;4976687;28;20035;-76
2023/05/07 11:50:18;;;;;;;2.08;1.77;;;24.40;58.40;;;;;;4993072;28;20103;-75
2023/05/07 11:52:51;;;;;;;2.47;1.83;;;24.40;58.10;;;;;;4981075;28;20056;-75
2023/05/07 11:55:18;;;;;;;1.52;1.48;;;24.30;58.10;;;;;;4963819;28;20432;-75
2023/05/07 11:57:45;;;;;;;1.90;1.55;;;24.10;58.60;;;;;;4999245;28;20108;-76
2023/05/07 12:00:11;;;;;;;1.15;1.10;;;24.20;58.80;;;;;;5000251;28;20076;-77
2023/05/07 12:02:36;;;;;;;1.42;1.33;;;24.30;58.60;;;;;;5008362;28;20034;-75
2023/05/07 12:05:02;;;;;;;1.48;1.38;;;24.50;58.40;;;;;;4991540;28;20033;-75
2023/05/07 12:07:28;;;;;;;0.98;0.98;;;24.70;57.90;;;;;;4958127;28;20062;-75
2023/05/07 12:09:54;;;;;;;4.07;2.10;;;24.90;57.60;;;;;;5019705;28;20111;-75
2023/05/07 12:12:19;;;;;;;2.15;2.03;;;25.10;55.90;;;;;;5010018;28;20019;-74
2023/05/07 12:14:46;;;;;;;1.85;1.75;;;25.10;55.30;;;;;;5017436;28;20109;-74
2023/05/07 12:17:13;;;;;;;2.20;2.00;;;24.80;55.80;;;;;;4998786;28;20034;-75
2023/05/07 12:19:41;;;;;;;1.88;1.63;;;24.50;56.20;;;;;;5004618;28;20033;-73
2023/05/07 12:22:08;;;;;;;2.72;1.48;;;24.30;56.70;;;;;;5008899;28;20022;-74
2023/05/07 12:24:46;;;;;;;4.35;1.70;;;24.10;57.30;;;;;;4994973;28;20027;-76
2023/05/07 12:27:17;;;;;;;2.58;1.50;;;24.10;57.00;;;;;;4989758;28;20038;-78
2023/05/07 12:29:50;;;;;;;3.45;1.45;;;24.10;57.30;;;;;;4978994;28;20042;-76
2023/05/07 12:32:17;;;;;;;1.52;1.42;;;24.10;57.00;;;;;;4994116;28;20022;-75
2023/05/07 12:34:44;;;;;;;1.35;1.30;;;24.30;56.80;;;;;;4989451;28;20026;-76
2023/05/07 12:37:10;;;;;;;1.30;1.20;;;24.40;56.40;;;;;;4958696;28;20035;-75
2023/05/07 12:39:36;;;;;;;3.28;1.60;;;24.70;56.00;;;;;;4985189;28;20042;-76
2023/05/07 12:42:01;;;;;;;1.67;1.58;;;25.00;54.30;;;;;;4982976;28;20050;-76
2023/05/07 12:44:32;;;;;;;1.45;1.35;;;24.90;53.80;;;;;;4990500;28;20044;-76
2023/05/07 12:47:01;;;;;;;3.72;1.48;;;24.60;55.10;;;;;;4973895;28;20030;-75
2023/05/07 12:49:27;;;;;;;4.28;1.40;;;24.60;54.70;;;;;;4991959;28;20034;-76
2023/05/07 12:51:53;;;;;;;4.18;1.70;;;24.40;54.00;;;;;;4984712;28;20409;-75
2023/05/07 12:54:30;;;;;;;2.42;1.48;;;24.10;54.90;;;;;;4992007;28;20049;-76
2023/05/07 12:57:06;;;;;;;4.55;1.30;;;24.10;55.00;;;;;;4999644;28;20372;-77
2023/05/07 12:59:37;;;;;;;1.23;1.17;;;24.00;55.30;;;;;;5006168;28;20419;-77
2023/05/07 13:02:10;;;;;;;1.65;1.40;;;24.30;55.00;;;;;;4973594;28;20061;-76
2023/05/07 13:04:36;;;;;;;1.40;1.20;;;24.50;53.70;;;;;;5003950;28;20034;-77
2023/05/07 13:07:02;;;;;;;1.08;1.08;;;24.80;54.30;;;;;;4978271;28;20026;-77
2023/05/07 13:09:30;;;;;;;2.22;1.52;;;25.30;53.50;;;;;;4995963;28;20034;-76
2023/05/07 13:11:56;;;;;;;1.02;1.02;;;25.60;51.60;;;;;;4998135;28;20431;-76
2023/05/07 13:14:22;;;;;;;2.90;1.02;;;25.60;51.10;;;;;;4995830;28;20253;-77
2023/05/07 13:16:48;;;;;;;1.38;1.08;;;25.50;50.40;;;;;;4998258;28;20045;-76
2023/05/07 13:19:29;;;;;;;1.67;1.20;;;25.40;50.90;;;;;;4982420;28;20379;-78
2023/05/07 13:21:55;;;;;;;0.93;0.93;;;25.50;49.90;;;;;;4984666;28;20030;-77
2023/05/07 13:24:21;;;;;;;1.02;1.00;;;25.30;50.00;;;;;;4991758;28;20391;-75
2023/05/07 13:26:50;;;;;;;1.20;0.82;;;25.10;50.50;;;;;;4996414;28;20048;-75
2023/05/07 13:29:16;;;;;;;3.20;1.42;;;24.90;49.90;;;;;;5006358;28;20110;-76
2023/05/07 13:31:43;;;;;;;0.90;0.90;;;24.80;50.10;;;;;;4984870;28;20118;-76
2023/05/07 13:34:10;;;;;;;2.30;1.08;;;24.80;49.80;;;;;;4984541;28;20388;-76
2023/05/07 13:36:37;;;;;;;1.70;0.95;;;24.80;49.60;;;;;;4990371;28;20386;-77